Time;durP1;ratioP1;P1;durP2;ratioP2;P2;SDS_P1;SDS_P2;PMS_P1;PMS_P2;Temp;Humidity;BMP_temperature;BMP_pressure;BME280_temperature;BME280_humidity;BME280_pressure;Samples;Min_cycle;Max_cycle;Signal;HPM_P1;HPM_P2
2021/12/28 00:00:23;;;;;;;37.28;21.30;;;2.50;99.90;;;;;;4956822;28;20035;-77
2021/12/28 00:02:49;;;;;;;44.72;22.90;;;2.50;99.90;;;;;;4957252;29;20023;-78
2021/12/28 00:05:17;;;;;;;42.90;25.95;;;2.50;99.90;;;;;;4956694;28;20039;-77
2021/12/28 00:07:43;;;;;;;43.72;25.80;;;2.50;99.90;;;;;;4956907;29;20036;-78
2021/12/28 00:10:12;;;;;;;39.08;24.60;;;2.50;99.90;;;;;;4957065;29;20031;-69
2021/12/28 00:12:38;;;;;;;35.83;22.05;;;2.60;99.90;;;;;;4956953;29;20042;-75
2021/12/28 00:17:59;;;;;;;47.45;28.15;;;2.50;99.90;;;;;;4957036;29;20474;-70
2021/12/28 00:20:29;;;;;;;46.25;28.35;;;2.70;99.90;;;;;;4956847;29;20035;-74
2021/12/28 00:22:58;;;;;;;37.28;22.02;;;2.70;99.90;;;;;;4956782;29;20055;-76
2021/12/28 00:25:25;;;;;;;36.42;22.40;;;2.70;99.90;;;;;;4956765;29;20028;-78
2021/12/28 00:27:52;;;;;;;37.88;21.63;;;2.70;99.90;;;;;;4956735;29;20027;-73
2021/12/28 00:30:19;;;;;;;35.25;21.35;;;2.60;99.90;;;;;;4956471;29;20110;-77
2021/12/28 00:32:52;;;;;;;37.05;23.52;;;2.70;99.90;;;;;;4956600;29;20035;-77
2021/12/28 00:35:23;;;;;;;37.45;22.65;;;2.60;99.90;;;;;;4956598;28;20035;-77
2021/12/28 00:37:50;;;;;;;42.97;25.90;;;2.50;99.90;;;;;;4956606;29;20035;-76
2021/12/28 00:40:21;;;;;;;44.60;26.33;;;2.60;99.90;;;;;;4976709;29;20026;-77
2021/12/28 00:42:50;;;;;;;43.15;25.25;;;2.60;99.90;;;;;;4958312;28;20031;-77
2021/12/28 00:45:17;;;;;;;46.13;26.25;;;2.70;99.90;;;;;;4956563;29;20023;-77
2021/12/28 00:47:43;;;;;;;39.25;25.15;;;2.70;99.90;;;;;;4956383;29;20033;-73
2021/12/28 00:50:11;;;;;;;41.42;24.17;;;2.80;99.90;;;;;;4971106;29;20413;-77
2021/12/28 00:52:37;;;;;;;36.97;22.52;;;2.80;99.90;;;;;;4956074;29;20031;-77
2021/12/28 00:55:05;;;;;;;42.63;26.83;;;2.80;99.90;;;;;;4968417;29;20035;-78
2021/12/28 00:57:40;;;;;;;38.42;22.90;;;2.80;99.90;;;;;;4960618;29;20058;-76
2021/12/28 01:00:20;;;;;;;35.50;21.52;;;2.80;99.90;;;;;;4978001;28;20058;-72
2021/12/28 01:02:53;;;;;;;40.13;23.63;;;2.70;99.90;;;;;;4954856;28;20031;-78
2021/12/28 01:05:20;;;;;;;33.90;21.15;;;2.80;99.90;;;;;;4938507;29;20106;-77
2021/12/28 01:07:46;;;;;;;49.47;26.73;;;2.70;99.90;;;;;;4959861;29;20549;-77
2021/12/28 01:10:19;;;;;;;45.80;26.25;;;2.80;99.90;;;;;;4976948;28;20070;-74
2021/12/28 01:12:46;;;;;;;42.80;27.13;;;2.80;99.90;;;;;;4954168;29;20038;-78
2021/12/28 01:15:13;;;;;;;42.65;25.40;;;2.80;99.90;;;;;;4971844;29;20031;-76
2021/12/28 01:17:40;;;;;;;49.33;26.17;;;2.90;99.90;;;;;;4962246;29;20029;-76
2021/12/28 01:20:08;;;;;;;41.45;24.75;;;2.90;99.90;;;;;;4955913;29;20031;-78
2021/12/28 01:22:35;;;;;;;42.47;25.45;;;2.90;99.90;;;;;;4955923;29;20035;-78
2021/12/28 01:25:01;;;;;;;42.58;27.30;;;3.00;99.90;;;;;;4954764;28;20034;-77
2021/12/28 01:27:32;;;;;;;49.35;25.67;;;2.90;99.90;;;;;;4975489;29;20055;-79
2021/12/28 01:30:05;;;;;;;53.67;32.08;;;2.90;99.90;;;;;;4977093;29;20115;-74
2021/12/28 01:32:44;;;;;;;54.38;32.75;;;2.90;99.90;;;;;;4976466;29;20100;-77
2021/12/28 01:35:14;;;;;;;46.35;27.25;;;2.90;99.90;;;;;;4971529;28;20030;-78
2021/12/28 01:37:40;;;;;;;43.42;24.88;;;2.90;99.90;;;;;;4955673;29;20485;-69
2021/12/28 01:40:10;;;;;;;36.58;21.17;;;2.90;99.90;;;;;;4974168;29;20015;-77
2021/12/28 01:42:58;;;;;;;38.50;22.65;;;2.90;99.90;;;;;;4975390;28;20054;-76
2021/12/28 01:45:46;;;;;;;33.30;20.50;;;2.80;99.90;;;;;;4955730;29;20063;-78
2021/12/28 01:48:18;;;;;;;39.50;22.60;;;2.70;99.90;;;;;;4955316;29;20050;-78
2021/12/28 01:50:51;;;;;;;42.25;24.20;;;2.70;99.90;;;;;;4976617;29;20032;-76
2021/12/28 01:53:24;;;;;;;51.30;29.27;;;2.70;99.90;;;;;;4958071;28;20039;-78
2021/12/28 01:55:53;;;;;;;45.67;26.30;;;2.80;99.90;;;;;;4955478;28;20027;-77
2021/12/28 01:58:19;;;;;;;47.22;27.58;;;2.90;99.90;;;;;;4955146;29;20030;-77
2021/12/28 02:00:48;;;;;;;41.47;27.02;;;2.90;99.90;;;;;;4955117;29;20106;-68
2021/12/28 02:03:15;;;;;;;43.78;25.83;;;2.90;99.90;;;;;;4955292;28;20518;-78
2021/12/28 02:05:42;;;;;;;40.17;26.67;;;2.80;99.90;;;;;;4954647;28;20044;-68
2021/12/28 02:08:12;;;;;;;49.60;28.27;;;2.80;99.90;;;;;;4955002;29;20043;-78
2021/12/28 02:10:39;;;;;;;44.00;27.75;;;2.80;99.90;;;;;;4954286;29;20030;-76
2021/12/28 02:13:06;;;;;;;63.38;33.53;;;2.80;99.90;;;;;;4954833;28;20047;-69
2021/12/28 02:15:33;;;;;;;49.40;30.67;;;2.90;99.90;;;;;;4954787;28;20035;-77
2021/12/28 02:17:59;;;;;;;50.28;32.45;;;2.90;99.90;;;;;;4954986;29;20023;-76
2021/12/28 02:20:25;;;;;;;55.83;31.20;;;2.90;99.90;;;;;;4955000;28;20422;-76
2021/12/28 02:22:51;;;;;;;58.10;34.17;;;2.90;99.90;;;;;;4954568;28;20038;-75
2021/12/28 02:25:19;;;;;;;53.28;32.53;;;3.00;99.90;;;;;;4954917;29;20035;-77
2021/12/28 02:27:46;;;;;;;47.90;30.60;;;3.00;99.90;;;;;;4954794;28;20462;-71
2021/12/28 02:30:16;;;;;;;44.40;27.27;;;3.00;99.90;;;;;;4954615;29;20405;-76
2021/12/28 02:32:44;;;;;;;47.72;29.15;;;3.00;99.90;;;;;;4954737;29;20130;-69
2021/12/28 02:35:17;;;;;;;46.15;28.58;;;2.90;99.90;;;;;;4953516;28;20066;-77
2021/12/28 02:37:43;;;;;;;45.38;27.33;;;2.90;99.90;;;;;;4954840;29;20039;-77
2021/12/28 02:40:13;;;;;;;41.95;24.50;;;2.90;99.90;;;;;;4954702;29;20482;-71
2021/12/28 02:42:39;;;;;;;38.72;21.42;;;2.90;99.90;;;;;;4954754;29;20478;-77
2021/12/28 02:45:10;;;;;;;35.65;21.15;;;2.90;99.90;;;;;;4954580;29;20082;-77
2021/12/28 02:47:41;;;;;;;40.45;22.25;;;2.90;99.90;;;;;;4954675;29;20429;-77
2021/12/28 02:50:14;;;;;;;44.65;24.35;;;2.80;99.90;;;;;;4954443;29;20079;-77
2021/12/28 02:52:55;;;;;;;40.67;24.00;;;2.70;99.90;;;;;;4976687;28;20026;-76
2021/12/28 02:55:33;;;;;;;44.08;25.13;;;2.50;99.90;;;;;;4976362;28;20023;-76
2021/12/28 02:58:10;;;;;;;40.97;25.00;;;2.60;99.90;;;;;;4971135;28;20043;-73
2021/12/28 03:00:47;;;;;;;43.83;25.85;;;2.60;99.90;;;;;;4969268;28;20027;-78
2021/12/28 03:03:23;;;;;;;47.67;27.52;;;2.50;99.90;;;;;;4954727;28;20051;-78
2021/12/28 03:05:51;;;;;;;43.63;25.67;;;2.50;99.90;;;;;;4954158;28;20055;-77
2021/12/28 03:08:24;;;;;;;44.30;27.35;;;2.40;99.90;;;;;;4974869;28;20035;-78
2021/12/28 03:11:01;;;;;;;47.80;29.48;;;2.40;99.90;;;;;;4974633;29;20031;-77
2021/12/28 03:13:56;;;;;;;47.78;28.92;;;2.40;99.90;;;;;;4969216;28;20067;-77
2021/12/28 03:16:25;;;;;;;42.95;24.15;;;2.50;99.90;;;;;;4951678;28;20043;-77
2021/12/28 03:18:51;;;;;;;46.42;25.95;;;2.50;99.90;;;;;;4954477;28;20082;-69
2021/12/28 03:21:19;;;;;;;44.80;27.10;;;2.50;99.90;;;;;;4958274;28;20061;-77
2021/12/28 03:23:45;;;;;;;46.10;24.92;;;2.60;99.90;;;;;;4954352;28;20024;-77
2021/12/28 03:26:12;;;;;;;44.40;26.90;;;2.50;99.90;;;;;;4961181;28;20023;-68
2021/12/28 03:28:41;;;;;;;42.67;25.75;;;2.60;99.90;;;;;;4970698;28;20525;-74
2021/12/28 03:31:10;;;;;;;41.70;25.10;;;2.70;99.90;;;;;;4954110;28;20031;-74
2021/12/28 03:33:39;;;;;;;40.20;23.65;;;2.60;99.90;;;;;;4954480;28;20428;-72
2021/12/28 03:36:06;;;;;;;52.88;30.30;;;2.70;99.90;;;;;;4957330;28;20101;-69
2021/12/28 03:38:34;;;;;;;45.22;26.38;;;2.70;99.90;;;;;;4957679;28;20035;-77
2021/12/28 03:41:01;;;;;;;44.38;25.70;;;2.80;99.90;;;;;;4957863;28;20032;-78
2021/12/28 03:43:27;;;;;;;40.83;23.17;;;2.70;99.90;;;;;;4957627;28;20496;-78
2021/12/28 03:45:53;;;;;;;39.80;25.00;;;2.80;99.90;;;;;;4972372;28;20035;-69
2021/12/28 03:48:19;;;;;;;43.58;25.05;;;2.70;99.90;;;;;;4957450;29;20023;-78
2021/12/28 03:50:45;;;;;;;46.70;26.15;;;2.70;99.90;;;;;;4957294;29;20027;-69
2021/12/28 03:53:12;;;;;;;43.47;24.90;;;2.60;99.90;;;;;;4957295;28;20035;-77
2021/12/28 03:55:38;;;;;;;37.22;21.98;;;2.50;99.90;;;;;;4957211;28;20034;-77
2021/12/28 03:58:05;;;;;;;42.47;25.85;;;2.60;99.90;;;;;;4957127;28;20042;-77
2021/12/28 04:00:35;;;;;;;40.90;23.33;;;2.60;99.90;;;;;;4957097;28;20083;-74
2021/12/28 04:03:01;;;;;;;47.00;24.17;;;2.60;99.90;;;;;;4976851;28;20046;-69
2021/12/28 04:05:27;;;;;;;42.38;26.55;;;2.60;99.90;;;;;;4970576;29;20070;-74
2021/12/28 04:07:53;;;;;;;48.80;27.45;;;2.50;99.90;;;;;;4956919;29;20062;-70
2021/12/28 04:10:28;;;;;;;57.38;27.70;;;2.50;99.90;;;;;;4956950;28;20035;-77
2021/12/28 04:12:54;;;;;;;48.95;26.10;;;2.50;99.90;;;;;;4957074;28;20039;-76
2021/12/28 04:15:20;;;;;;;47.95;28.17;;;2.40;99.90;;;;;;4957036;28;20026;-69
2021/12/28 04:17:45;;;;;;;60.72;34.55;;;2.50;99.90;;;;;;4956854;28;20444;-76
2021/12/28 04:20:15;;;;;;;60.25;35.88;;;2.40;99.90;;;;;;4956915;29;20027;-77
2021/12/28 04:22:42;;;;;;;69.82;38.47;;;2.40;99.90;;;;;;4956920;28;20544;-71
2021/12/28 04:25:10;;;;;;;58.15;31.15;;;2.30;99.90;;;;;;4956768;28;20481;-74
2021/12/28 04:27:36;;;;;;;65.32;34.33;;;2.30;99.90;;;;;;4957077;28;20389;-77
2021/12/28 04:30:03;;;;;;;64.20;36.67;;;2.30;99.90;;;;;;4956615;29;20027;-76
2021/12/28 04:32:29;;;;;;;60.45;30.27;;;2.30;99.90;;;;;;4956060;28;20387;-73
2021/12/28 04:34:55;;;;;;;68.65;33.55;;;2.30;99.90;;;;;;4956239;28;20492;-76
2021/12/28 04:37:24;;;;;;;56.10;32.20;;;2.30;99.90;;;;;;4976777;29;20039;-79
2021/12/28 04:39:52;;;;;;;53.13;31.38;;;2.30;99.90;;;;;;4967304;28;20030;-69
2021/12/28 04:42:18;;;;;;;53.28;28.30;;;2.40;99.90;;;;;;4967100;28;20054;-79
2021/12/28 04:44:46;;;;;;;59.45;30.80;;;2.40;99.90;;;;;;4971263;28;20078;-73
2021/12/28 04:47:12;;;;;;;62.20;31.30;;;2.30;99.90;;;;;;4955122;28;20366;-73
2021/12/28 04:49:38;;;;;;;57.00;30.13;;;2.30;99.90;;;;;;4956075;28;20051;-73
2021/12/28 04:52:05;;;;;;;67.20;37.08;;;2.30;99.90;;;;;;4956003;28;20047;-75
2021/12/28 04:54:31;;;;;;;59.28;31.17;;;2.30;99.90;;;;;;4956145;28;20021;-78
2021/12/28 04:56:57;;;;;;;41.08;23.35;;;2.40;99.90;;;;;;4956074;29;20035;-77
2021/12/28 04:59:23;;;;;;;42.97;21.67;;;2.30;99.90;;;;;;4956294;29;20406;-78
2021/12/28 05:01:49;;;;;;;47.55;25.52;;;2.40;99.90;;;;;;4955862;29;20389;-78
2021/12/28 05:04:15;;;;;;;49.17;29.80;;;2.50;99.90;;;;;;4955773;29;20139;-78
2021/12/28 05:06:42;;;;;;;55.72;28.42;;;2.40;99.90;;;;;;4970075;28;20058;-79
2021/12/28 05:09:10;;;;;;;55.55;30.13;;;2.40;99.90;;;;;;4956007;28;20560;-79
2021/12/28 05:11:38;;;;;;;52.30;28.48;;;2.40;99.90;;;;;;4955998;29;20379;-75
2021/12/28 05:14:05;;;;;;;50.10;27.92;;;2.40;99.90;;;;;;4955637;28;20223;-68
2021/12/28 05:16:33;;;;;;;49.03;29.67;;;2.50;99.90;;;;;;4957065;28;20038;-75
2021/12/28 05:19:01;;;;;;;56.13;30.48;;;2.50;99.90;;;;;;4956195;28;20493;-75
2021/12/28 05:21:28;;;;;;;55.88;29.15;;;2.40;99.90;;;;;;4956216;28;20280;-77
2021/12/28 05:23:54;;;;;;;64.25;35.20;;;2.40;99.90;;;;;;4956858;28;20019;-77
2021/12/28 05:26:20;;;;;;;58.25;29.23;;;2.30;99.90;;;;;;4955785;29;20027;-77
2021/12/28 05:28:47;;;;;;;52.60;28.35;;;2.40;99.90;;;;;;4956204;29;20031;-79
2021/12/28 05:31:13;;;;;;;53.03;27.45;;;2.30;99.90;;;;;;4955485;29;20093;-81
2021/12/28 05:33:41;;;;;;;60.15;29.85;;;2.20;99.90;;;;;;4956334;29;20031;-78
2021/12/28 05:36:09;;;;;;;66.03;33.05;;;2.20;99.90;;;;;;4955608;29;20363;-79
2021/12/28 05:38:35;;;;;;;63.97;33.08;;;2.20;99.90;;;;;;4922513;29;20422;-79
2021/12/28 05:41:03;;;;;;;65.00;30.67;;;2.20;99.90;;;;;;4956256;29;20031;-73
2021/12/28 05:43:28;;;;;;;55.33;30.40;;;2.20;99.90;;;;;;4955280;29;20029;-70
2021/12/28 05:45:54;;;;;;;51.38;30.15;;;2.20;99.90;;;;;;4955446;29;20492;-73
2021/12/28 05:48:20;;;;;;;59.75;29.67;;;2.30;99.90;;;;;;4955083;28;20032;-76
2021/12/28 05:50:46;;;;;;;55.35;30.42;;;2.30;99.90;;;;;;4955084;29;20031;-80
2021/12/28 05:53:12;;;;;;;61.13;30.92;;;2.40;99.90;;;;;;4955061;29;20082;-74
2021/12/28 05:55:38;;;;;;;53.38;30.85;;;2.30;99.90;;;;;;4955033;29;20115;-80
2021/12/28 05:58:04;;;;;;;54.63;27.13;;;2.40;99.90;;;;;;4954741;28;20023;-70
2021/12/28 06:00:30;;;;;;;58.45;34.63;;;2.40;99.90;;;;;;4955117;29;20024;-80
2021/12/28 06:02:57;;;;;;;59.13;32.97;;;2.50;99.90;;;;;;4955114;29;20034;-81
2021/12/28 06:05:24;;;;;;;57.70;33.05;;;2.50;99.90;;;;;;4954767;28;20049;-80
2021/12/28 06:07:50;;;;;;;62.88;32.90;;;2.60;99.90;;;;;;4954979;29;20046;-80
2021/12/28 06:10:16;;;;;;;56.15;28.67;;;2.60;99.90;;;;;;4955089;29;20027;-73
2021/12/28 06:12:43;;;;;;;64.22;32.20;;;2.60;99.90;;;;;;4937795;29;20039;-73
2021/12/28 06:15:10;;;;;;;61.50;34.38;;;2.60;99.90;;;;;;4954862;29;20422;-81
2021/12/28 06:17:36;;;;;;;62.70;35.03;;;2.60;99.90;;;;;;4954819;29;20031;-76
2021/12/28 06:20:03;;;;;;;55.63;34.03;;;2.60;99.90;;;;;;4955017;29;20110;-81
2021/12/28 06:22:29;;;;;;;52.67;30.27;;;2.70;99.90;;;;;;4954978;29;20492;-80
2021/12/28 06:24:55;;;;;;;51.83;31.20;;;2.70;99.90;;;;;;4955174;29;20102;-73
2021/12/28 06:27:21;;;;;;;51.05;27.90;;;2.70;99.90;;;;;;4955212;29;20039;-72
2021/12/28 06:29:46;;;;;;;55.22;29.85;;;2.80;99.90;;;;;;4955073;29;20058;-79
2021/12/28 06:32:13;;;;;;;54.15;29.00;;;2.80;99.90;;;;;;4954758;29;20050;-79
2021/12/28 06:34:39;;;;;;;53.40;28.90;;;2.80;99.90;;;;;;4954790;29;20019;-70
2021/12/28 06:37:05;;;;;;;53.63;30.25;;;2.80;99.90;;;;;;4955064;29;20504;-73
2021/12/28 06:39:31;;;;;;;46.80;27.55;;;2.80;99.90;;;;;;4954696;28;20478;-80
2021/12/28 06:41:57;;;;;;;57.67;29.65;;;2.70;99.90;;;;;;4954503;29;20024;-78
2021/12/28 06:44:23;;;;;;;67.93;36.22;;;2.80;99.90;;;;;;4953762;29;20019;-75
2021/12/28 06:46:49;;;;;;;62.60;36.70;;;2.80;99.90;;;;;;4953876;29;20037;-80
2021/12/28 06:49:16;;;;;;;51.55;30.63;;;2.80;99.90;;;;;;4954645;29;20393;-70
2021/12/28 06:51:42;;;;;;;61.55;31.23;;;2.80;99.90;;;;;;4954201;29;20050;-80
2021/12/28 06:54:08;;;;;;;59.28;31.23;;;2.70;99.90;;;;;;4954863;29;20035;-76
2021/12/28 06:56:34;;;;;;;63.55;32.72;;;2.70;99.90;;;;;;4954361;29;20106;-81
2021/12/28 06:59:01;;;;;;;59.50;32.60;;;2.70;99.90;;;;;;4937117;29;20404;-76
2021/12/28 07:01:32;;;;;;;63.42;35.95;;;2.80;99.90;;;;;;4977581;28;20014;-80
2021/12/28 07:04:16;;;;;;;70.70;39.83;;;2.80;99.90;;;;;;4946310;28;20020;-76
2021/12/28 07:07:03;;;;;;;57.15;28.70;;;2.90;99.90;;;;;;4978254;28;20058;-73
2021/12/28 07:09:52;;;;;;;46.00;28.42;;;2.90;99.90;;;;;;4980151;28;20011;-76
2021/12/28 07:12:43;;;;;;;49.88;30.67;;;2.90;99.90;;;;;;4982112;28;20039;-75
2021/12/28 07:15:35;;;;;;;58.58;31.15;;;3.00;99.90;;;;;;4967372;28;20046;-78
2021/12/28 07:18:15;;;;;;;59.75;35.28;;;3.00;99.90;;;;;;4965378;28;20047;-79
2021/12/28 07:21:02;;;;;;;56.50;32.83;;;3.00;99.90;;;;;;4982200;28;20039;-78
2021/12/28 07:23:48;;;;;;;62.15;35.83;;;3.10;99.90;;;;;;4978983;29;20039;-75
2021/12/28 07:26:25;;;;;;;50.80;30.40;;;3.20;99.90;;;;;;4977788;29;20034;-81
2021/12/28 07:28:58;;;;;;;49.38;26.42;;;3.20;99.90;;;;;;4963343;28;20031;-77
2021/12/28 07:31:39;;;;;;;54.13;28.70;;;3.30;99.90;;;;;;4963817;28;20015;-80
2021/12/28 07:34:12;;;;;;;57.90;32.30;;;3.20;99.90;;;;;;4959704;28;20445;-81
2021/12/28 07:36:40;;;;;;;63.53;34.85;;;3.20;99.90;;;;;;4978718;28;20015;-79
2021/12/28 07:39:16;;;;;;;53.67;30.35;;;3.30;99.90;;;;;;4979573;28;20365;-79
2021/12/28 07:41:50;;;;;;;46.65;29.33;;;3.40;99.90;;;;;;4980758;29;20034;-79
2021/12/28 07:44:25;;;;;;;56.10;30.10;;;3.40;99.90;;;;;;4980844;28;20062;-81
2021/12/28 07:47:09;;;;;;;72.15;41.08;;;3.40;99.90;;;;;;4981003;28;20016;-80
2021/12/28 07:49:44;;;;;;;59.78;34.42;;;3.50;99.90;;;;;;4961368;29;20023;-81
2021/12/28 07:52:22;;;;;;;55.67;32.83;;;3.30;99.90;;;;;;4979391;28;20123;-80
2021/12/28 07:54:57;;;;;;;55.00;31.90;;;3.30;99.90;;;;;;4978867;28;20066;-77
2021/12/28 07:57:39;;;;;;;61.53;34.90;;;3.40;99.90;;;;;;4979901;29;20039;-80
2021/12/28 08:00:14;;;;;;;55.58;34.35;;;3.40;99.90;;;;;;4978899;29;20047;-80
2021/12/28 08:02:54;;;;;;;64.55;35.97;;;3.50;99.90;;;;;;4978840;29;20031;-79
2021/12/28 08:05:36;;;;;;;57.75;35.22;;;3.40;99.90;;;;;;4978395;29;20285;-80
2021/12/28 08:08:12;;;;;;;63.97;37.78;;;3.40;99.90;;;;;;4960408;28;20032;-78
2021/12/28 08:10:44;;;;;;;65.55;36.70;;;3.40;99.90;;;;;;4978442;29;20050;-74
2021/12/28 08:13:21;;;;;;;52.30;32.22;;;3.40;99.90;;;;;;4962614;28;20035;-77
2021/12/28 08:15:55;;;;;;;56.58;35.42;;;3.40;99.90;;;;;;4962538;29;20027;-79
2021/12/28 08:18:26;;;;;;;65.38;35.83;;;3.40;99.90;;;;;;4977641;28;20090;-80
2021/12/28 08:21:02;;;;;;;62.13;37.70;;;3.30;99.90;;;;;;4978235;28;20015;-81
2021/12/28 08:23:46;;;;;;;61.05;36.55;;;3.40;99.90;;;;;;4960576;29;20039;-79
2021/12/28 08:26:24;;;;;;;64.45;37.42;;;3.40;99.90;;;;;;4979795;28;20032;-79
2021/12/28 08:28:54;;;;;;;58.03;34.10;;;3.50;99.90;;;;;;4972536;29;20039;-80
2021/12/28 08:31:20;;;;;;;61.58;37.60;;;3.50;99.90;;;;;;4928966;29;20561;-80
2021/12/28 08:33:56;;;;;;;66.50;40.20;;;3.50;99.90;;;;;;4979319;29;20095;-78
2021/12/28 08:36:33;;;;;;;67.07;39.00;;;3.40;99.90;;;;;;4962634;29;20050;-80
2021/12/28 09:39:42;;;;;;;50.78;30.45;;;3.20;99.90;;;;;;5155729;27;20430;-79
2021/12/28 09:42:08;;;;;;;64.40;34.50;;;3.30;99.90;;;;;;5155059;27;20418;-80
2021/12/28 09:44:35;;;;;;;45.47;27.05;;;3.30;99.90;;;;;;5153016;27;20326;-80
2021/12/28 09:47:02;;;;;;;67.50;39.03;;;3.50;99.90;;;;;;5156199;27;20030;-80
2021/12/28 09:49:28;;;;;;;56.53;30.95;;;3.40;99.90;;;;;;5153207;27;20084;-80
2021/12/28 09:51:55;;;;;;;63.78;37.42;;;3.40;99.90;;;;;;5153591;27;20031;-80
2021/12/28 09:54:26;;;;;;;75.22;43.63;;;3.30;99.90;;;;;;5154386;27;20027;-81
2021/12/28 09:56:55;;;;;;;67.90;37.28;;;3.30;99.90;;;;;;5155261;27;20172;-81
2021/12/28 09:59:21;;;;;;;68.03;39.90;;;3.30;99.90;;;;;;5156223;27;20023;-81
2021/12/28 10:01:47;;;;;;;63.58;38.92;;;3.40;99.90;;;;;;5155078;27;20034;-79
2021/12/28 10:04:13;;;;;;;64.70;36.08;;;3.50;99.90;;;;;;5172745;27;20034;-81
2021/12/28 10:06:42;;;;;;;54.53;33.03;;;3.40;99.90;;;;;;5157029;27;20022;-80
2021/12/28 10:09:13;;;;;;;63.53;34.03;;;3.30;99.90;;;;;;5159142;27;20503;-79
2021/12/28 10:11:44;;;;;;;78.65;46.42;;;3.30;99.90;;;;;;5159423;27;20023;-81
2021/12/28 10:14:26;;;;;;;89.60;47.00;;;3.40;99.90;;;;;;5156923;27;20088;-80
2021/12/28 10:16:57;;;;;;;79.60;49.05;;;3.40;99.90;;;;;;5154790;27;20026;-81
2021/12/28 10:19:44;;;;;;;84.13;51.58;;;3.20;99.90;;;;;;5150573;27;20027;-80
2021/12/28 10:22:29;;;;;;;69.13;39.13;;;3.30;99.90;;;;;;5153331;27;20034;-80
2021/12/28 10:24:59;;;;;;;68.38;42.75;;;3.30;99.90;;;;;;5153797;27;20056;-80
2021/12/28 10:27:28;;;;;;;77.50;44.85;;;3.50;99.90;;;;;;5155032;27;20087;-79
2021/12/28 10:29:55;;;;;;;76.05;49.13;;;3.50;99.90;;;;;;5156582;27;20027;-78
2021/12/28 10:32:28;;;;;;;90.38;51.90;;;3.60;99.90;;;;;;5154588;27;20046;-80
2021/12/28 10:34:58;;;;;;;75.07;46.25;;;3.70;99.90;;;;;;5155299;27;20027;-73
2021/12/28 10:37:28;;;;;;;72.50;39.60;;;3.80;99.90;;;;;;5155262;27;20038;-80
2021/12/28 10:39:58;;;;;;;60.35;39.70;;;3.80;99.90;;;;;;5143836;27;20488;-80
2021/12/28 10:42:39;;;;;;;60.28;37.13;;;4.00;99.90;;;;;;5140815;27;20540;-80
2021/12/28 10:45:07;;;;;;;69.82;37.33;;;4.30;99.90;;;;;;5142600;27;20031;-80
2021/12/28 10:47:33;;;;;;;67.47;39.35;;;4.10;99.90;;;;;;5142860;27;20392;-80
2021/12/28 10:50:07;;;;;;;66.65;36.85;;;4.10;99.90;;;;;;5140070;27;20023;-80
2021/12/28 10:52:38;;;;;;;65.35;36.17;;;3.70;99.90;;;;;;5140720;27;20106;-79
2021/12/28 10:55:21;;;;;;;69.45;39.17;;;3.90;99.90;;;;;;5142863;27;20035;-80
2021/12/28 10:57:47;;;;;;;75.85;41.10;;;4.00;99.90;;;;;;5141709;27;20551;-79
2021/12/28 11:00:43;;;;;;;69.97;40.47;;;4.10;99.90;;;;;;5142561;27;20027;-79
2021/12/28 11:03:15;;;;;;;67.63;41.20;;;4.10;99.90;;;;;;5145417;27;20027;-79
2021/12/28 11:05:43;;;;;;;67.95;37.63;;;3.90;99.90;;;;;;5144623;27;20023;-79
2021/12/28 11:08:09;;;;;;;65.18;37.53;;;3.70;99.90;;;;;;5142624;27;20530;-80
2021/12/28 11:10:50;;;;;;;82.35;51.80;;;3.60;99.90;;;;;;5143964;27;20020;-79
2021/12/28 11:13:21;;;;;;;54.90;33.25;;;3.70;99.90;;;;;;5142898;27;20027;-80
2021/12/28 11:15:48;;;;;;;62.20;39.60;;;3.80;99.90;;;;;;5140360;27;20022;-77
2021/12/28 11:18:23;;;;;;;77.88;51.15;;;3.70;99.90;;;;;;5141570;27;20053;-80
2021/12/28 11:20:52;;;;;;;66.18;39.40;;;3.80;99.90;;;;;;5136477;27;20023;-78
2021/12/28 11:23:23;;;;;;;63.15;37.08;;;3.80;99.90;;;;;;5134032;27;20207;-81
2021/12/28 11:26:11;;;;;;;55.60;29.20;;;3.90;99.90;;;;;;5132382;27;20061;-80
2021/12/28 11:28:38;;;;;;;56.28;31.15;;;4.10;99.90;;;;;;5138966;27;20039;-80
2021/12/28 11:31:11;;;;;;;59.45;34.30;;;4.00;99.90;;;;;;5139942;27;20064;-79
2021/12/28 11:33:49;;;;;;;66.25;37.22;;;3.80;99.90;;;;;;5142117;27;20023;-80
2021/12/28 11:36:18;;;;;;;66.90;40.78;;;4.10;99.90;;;;;;5144804;27;20058;-76
2021/12/28 11:38:44;;;;;;;63.00;37.17;;;4.10;99.90;;;;;;5140585;27;20077;-80
2021/12/28 11:41:11;;;;;;;50.50;30.25;;;4.20;99.90;;;;;;5141720;27;20035;-80
2021/12/28 11:43:38;;;;;;;52.63;35.10;;;4.20;99.90;;;;;;5140808;27;20047;-80
2021/12/28 11:46:05;;;;;;;53.45;34.00;;;4.10;99.90;;;;;;5139682;27;20031;-80
2021/12/28 11:48:33;;;;;;;65.88;34.47;;;4.00;99.90;;;;;;5137602;27;20035;-80
2021/12/28 11:50:59;;;;;;;66.18;39.95;;;4.30;99.90;;;;;;5138213;27;20019;-80
2021/12/28 11:53:27;;;;;;;58.78;35.63;;;4.30;99.90;;;;;;5137065;27;20041;-80
2021/12/28 11:55:56;;;;;;;61.55;31.42;;;4.20;99.90;;;;;;5137147;27;20467;-80
2021/12/28 11:58:47;;;;;;;57.90;33.03;;;4.10;99.90;;;;;;5139456;27;20050;-72
2021/12/28 12:01:36;;;;;;;60.30;32.95;;;4.10;99.90;;;;;;5143026;27;20442;-81
2021/12/28 12:04:04;;;;;;;64.28;36.47;;;4.00;99.90;;;;;;5141524;27;20140;-80
2021/12/28 12:06:58;;;;;;;58.20;35.40;;;4.00;99.90;;;;;;5140925;27;20016;-80
2021/12/28 12:09:25;;;;;;;56.08;33.08;;;3.90;99.90;;;;;;5140452;27;20050;-72
2021/12/28 12:12:11;;;;;;;63.47;36.47;;;4.10;99.90;;;;;;5140029;27;20019;-80
2021/12/28 12:14:58;;;;;;;67.72;39.25;;;4.10;99.90;;;;;;5139486;27;20080;-80
2021/12/28 12:17:39;;;;;;;78.65;39.80;;;4.10;99.90;;;;;;5141623;27;20122;-77
2021/12/28 12:20:18;;;;;;;70.60;38.42;;;4.20;99.90;;;;;;5140217;27;20098;-79
2021/12/28 12:23:08;;;;;;;72.45;40.95;;;4.10;99.90;;;;;;5141191;27;20027;-77
2021/12/28 12:26:01;;;;;;;60.08;34.65;;;4.10;99.90;;;;;;5137486;27;20114;-79
2021/12/28 12:28:37;;;;;;;63.50;35.05;;;4.20;99.90;;;;;;5138634;27;20118;-78
2021/12/28 12:31:05;;;;;;;57.00;33.10;;;4.30;99.90;;;;;;5139590;27;20193;-79
2021/12/28 12:33:42;;;;;;;47.30;29.15;;;4.20;99.90;;;;;;5139803;27;20030;-71
2021/12/28 12:36:20;;;;;;;53.45;31.65;;;4.20;99.90;;;;;;5140258;27;20545;-79
2021/12/28 12:38:47;;;;;;;54.97;31.20;;;4.20;99.90;;;;;;5141267;27;20107;-79
2021/12/28 12:41:17;;;;;;;50.60;32.30;;;4.10;99.90;;;;;;5139291;27;20043;-80
2021/12/28 12:43:57;;;;;;;47.42;27.10;;;4.20;99.90;;;;;;5140196;27;20023;-80
2021/12/28 12:46:38;;;;;;;47.72;28.20;;;4.00;99.90;;;;;;5139005;27;20035;-80
2021/12/28 12:49:08;;;;;;;51.03;32.10;;;4.10;99.90;;;;;;5135370;27;20027;-80
2021/12/28 12:52:11;;;;;;;59.58;36.95;;;4.20;99.90;;;;;;5137690;27;20038;-81
2021/12/28 12:54:45;;;;;;;61.13;35.10;;;4.40;99.90;;;;;;5138221;27;20031;-79
2021/12/28 12:57:18;;;;;;;48.85;28.73;;;4.50;99.90;;;;;;5138724;27;20057;-79
2021/12/28 12:59:51;;;;;;;65.15;39.22;;;4.50;99.90;;;;;;5137418;27;20035;-80
2021/12/28 13:02:17;;;;;;;54.13;30.85;;;4.60;99.90;;;;;;5139121;27;20042;-76
2021/12/28 13:04:49;;;;;;;45.25;27.33;;;4.70;99.90;;;;;;5142421;27;20019;-80
2021/12/28 13:07:25;;;;;;;43.05;26.95;;;4.80;99.90;;;;;;5137047;27;20042;-81
2021/12/28 13:10:05;;;;;;;48.55;28.75;;;4.80;99.90;;;;;;5135093;27;20042;-79
2021/12/28 13:12:32;;;;;;;42.28;24.80;;;4.70;99.90;;;;;;5135243;27;20047;-77
2021/12/28 13:14:58;;;;;;;44.45;27.10;;;4.70;99.90;;;;;;5134425;27;20027;-81
2021/12/28 13:17:27;;;;;;;51.38;27.38;;;4.80;99.90;;;;;;5135884;27;20057;-80
2021/12/28 13:20:11;;;;;;;56.40;33.00;;;4.80;99.90;;;;;;5137533;27;20023;-80
2021/12/28 13:22:39;;;;;;;68.18;37.97;;;4.60;99.90;;;;;;5136214;27;20030;-81
2021/12/28 13:25:09;;;;;;;60.25;37.28;;;4.60;99.90;;;;;;5137935;27;20023;-80
2021/12/28 13:27:37;;;;;;;69.85;45.05;;;4.80;99.90;;;;;;5138933;27;20095;-80
2021/12/28 13:30:16;;;;;;;67.68;36.42;;;4.90;99.90;;;;;;5135429;28;20376;-80
2021/12/28 13:32:44;;;;;;;51.05;27.77;;;5.00;99.90;;;;;;5136822;27;20057;-80
2021/12/28 13:35:15;;;;;;;54.33;30.80;;;4.80;99.90;;;;;;5136000;27;20020;-80
2021/12/28 13:37:41;;;;;;;48.05;27.45;;;4.90;99.90;;;;;;5136836;27;20100;-80
2021/12/28 13:40:13;;;;;;;44.80;26.85;;;4.80;99.90;;;;;;5136977;27;20473;-79
2021/12/28 13:42:46;;;;;;;60.75;33.63;;;4.70;99.90;;;;;;5135319;27;20046;-79
2021/12/28 13:45:25;;;;;;;58.42;32.78;;;4.70;99.90;;;;;;5139465;27;20390;-78
2021/12/28 13:47:51;;;;;;;52.80;29.65;;;4.90;99.90;;;;;;5136676;27;20039;-80
2021/12/28 13:50:17;;;;;;;49.85;30.58;;;5.00;99.90;;;;;;5136257;27;20026;-81
2021/12/28 13:52:49;;;;;;;67.85;39.55;;;5.10;99.90;;;;;;5138002;27;20027;-79
2021/12/28 13:55:18;;;;;;;88.88;51.10;;;5.00;99.90;;;;;;5138743;28;20031;-80
2021/12/28 13:57:44;;;;;;;62.72;36.35;;;5.00;99.90;;;;;;5138520;27;20020;-80